sensor_id;sensor_type;location;lat;lon;timestamp;P1;durP1;ratioP1;P2;durP2;ratioP2
33206;SDS011;19565;46.602;11.534;2023-04-03T00:00:50;18.40;;;17.50;;
33206;SDS011;19565;46.602;11.534;2023-04-03T00:03:19;18.23;;;17.33;;
33206;SDS011;19565;46.602;11.534;2023-04-03T00:05:47;18.60;;;17.70;;
33206;SDS011;19565;46.602;11.534;2023-04-03T00:08:15;19.23;;;18.33;;
33206;SDS011;19565;46.602;11.534;2023-04-03T00:10:43;18.80;;;17.90;;
33206;SDS011;19565;46.602;11.534;2023-04-03T00:13:11;18.50;;;17.60;;
33206;SDS011;19565;46.602;11.534;2023-04-03T00:15:40;18.50;;;17.60;;
33206;SDS011;19565;46.602;11.534;2023-04-03T00:18:08;18.50;;;17.60;;
33206;SDS011;19565;46.602;11.534;2023-04-03T00:20:38;18.80;;;17.80;;
33206;SDS011;19565;46.602;11.534;2023-04-03T00:23:06;18.57;;;17.67;;
33206;SDS011;19565;46.602;11.534;2023-04-03T00:25:34;18.47;;;17.57;;
33206;SDS011;19565;46.602;11.534;2023-04-03T00:28:03;18.27;;;17.37;;
33206;SDS011;19565;46.602;11.534;2023-04-03T00:30:31;18.17;;;17.27;;
33206;SDS011;19565;46.602;11.534;2023-04-03T00:33:00;19.20;;;18.30;;
33206;SDS011;19565;46.602;11.534;2023-04-03T00:35:29;18.13;;;17.23;;
33206;SDS011;19565;46.602;11.534;2023-04-03T00:37:58;18.27;;;17.37;;
33206;SDS011;19565;46.602;11.534;2023-04-03T00:40:27;18.27;;;17.37;;
33206;SDS011;19565;46.602;11.534;2023-04-03T00:42:55;18.20;;;17.30;;
33206;SDS011;19565;46.602;11.534;2023-04-03T00:45:27;18.40;;;17.50;;
33206;SDS011;19565;46.602;11.534;2023-04-03T00:47:58;18.50;;;17.60;;
33206;SDS011;19565;46.602;11.534;2023-04-03T00:50:28;18.43;;;17.53;;
33206;SDS011;19565;46.602;11.534;2023-04-03T00:52:58;18.43;;;17.53;;
33206;SDS011;19565;46.602;11.534;2023-04-03T00:55:27;18.30;;;17.40;;
33206;SDS011;19565;46.602;11.534;2023-04-03T00:57:56;19.10;;;18.20;;
33206;SDS011;19565;46.602;11.534;2023-04-03T01:00:24;18.90;;;18.00;;
33206;SDS011;19565;46.602;11.534;2023-04-03T01:02:53;19.40;;;18.50;;
33206;SDS011;19565;46.602;11.534;2023-04-03T01:05:21;18.93;;;18.03;;
33206;SDS011;19565;46.602;11.534;2023-04-03T01:07:49;19.03;;;18.13;;
33206;SDS011;19565;46.602;11.534;2023-04-03T01:10:21;18.67;;;17.77;;
33206;SDS011;19565;46.602;11.534;2023-04-03T01:12:52;19.13;;;18.23;;
33206;SDS011;19565;46.602;11.534;2023-04-03T01:15:20;18.73;;;17.83;;
33206;SDS011;19565;46.602;11.534;2023-04-03T01:17:50;19.00;;;18.10;;
33206;SDS011;19565;46.602;11.534;2023-04-03T01:23:20;18.97;;;18.07;;
33206;SDS011;19565;46.602;11.534;2023-04-03T01:26:01;18.87;;;17.97;;
33206;SDS011;19565;46.602;11.534;2023-04-03T01:28:31;18.83;;;17.93;;
33206;SDS011;19565;46.602;11.534;2023-04-03T01:31:03;18.60;;;17.70;;
33206;SDS011;19565;46.602;11.534;2023-04-03T01:33:39;18.93;;;18.03;;
33206;SDS011;19565;46.602;11.534;2023-04-03T01:36:08;18.93;;;18.03;;
33206;SDS011;19565;46.602;11.534;2023-04-03T01:38:39;18.77;;;17.87;;
33206;SDS011;19565;46.602;11.534;2023-04-03T01:41:07;19.50;;;18.50;;
33206;SDS011;19565;46.602;11.534;2023-04-03T01:43:35;18.87;;;17.97;;
33206;SDS011;19565;46.602;11.534;2023-04-03T01:46:03;18.97;;;18.07;;
33206;SDS011;19565;46.602;11.534;2023-04-03T01:48:31;19.27;;;18.37;;
33206;SDS011;19565;46.602;11.534;2023-04-03T01:51:01;19.23;;;18.33;;
33206;SDS011;19565;46.602;11.534;2023-04-03T01:53:29;19.03;;;18.13;;
33206;SDS011;19565;46.602;11.534;2023-04-03T01:55:57;19.07;;;18.17;;
33206;SDS011;19565;46.602;11.534;2023-04-03T01:58:25;19.50;;;18.60;;
33206;SDS011;19565;46.602;11.534;2023-04-03T02:00:53;19.30;;;18.40;;
33206;SDS011;19565;46.602;11.534;2023-04-03T02:03:21;18.93;;;18.03;;
33206;SDS011;19565;46.602;11.534;2023-04-03T02:05:49;18.83;;;17.93;;
33206;SDS011;19565;46.602;11.534;2023-04-03T02:08:19;18.90;;;18.00;;
33206;SDS011;19565;46.602;11.534;2023-04-03T02:10:47;18.90;;;18.00;;
33206;SDS011;19565;46.602;11.534;2023-04-03T02:13:15;19.13;;;18.23;;
33206;SDS011;19565;46.602;11.534;2023-04-03T02:15:44;18.90;;;18.00;;
33206;SDS011;19565;46.602;11.534;2023-04-03T02:18:12;19.20;;;18.30;;
33206;SDS011;19565;46.602;11.534;2023-04-03T02:20:41;19.60;;;18.63;;
33206;SDS011;19565;46.602;11.534;2023-04-03T02:23:09;19.13;;;18.23;;
33206;SDS011;19565;46.602;11.534;2023-04-03T02:25:38;19.20;;;18.30;;
33206;SDS011;19565;46.602;11.534;2023-04-03T02:28:06;18.80;;;17.90;;
33206;SDS011;19565;46.602;11.534;2023-04-03T02:30:34;18.97;;;18.07;;
33206;SDS011;19565;46.602;11.534;2023-04-03T02:33:03;18.97;;;18.07;;
33206;SDS011;19565;46.602;11.534;2023-04-03T02:35:31;18.63;;;17.73;;
33206;SDS011;19565;46.602;11.534;2023-04-03T02:37:59;18.97;;;18.07;;
33206;SDS011;19565;46.602;11.534;2023-04-03T02:40:27;18.63;;;17.73;;
33206;SDS011;19565;46.602;11.534;2023-04-03T02:42:56;38.30;;;36.70;;
33206;SDS011;19565;46.602;11.534;2023-04-03T02:45:24;39.93;;;38.23;;
33206;SDS011;19565;46.602;11.534;2023-04-03T02:47:52;39.47;;;37.77;;
33206;SDS011;19565;46.602;11.534;2023-04-03T02:50:20;40.23;;;38.53;;
33206;SDS011;19565;46.602;11.534;2023-04-03T02:52:48;40.87;;;39.10;;
33206;SDS011;19565;46.602;11.534;2023-04-03T02:55:16;39.60;;;37.90;;
33206;SDS011;19565;46.602;11.534;2023-04-03T02:57:44;40.17;;;38.47;;
33206;SDS011;19565;46.602;11.534;2023-04-03T03:00:14;40.87;;;39.07;;
33206;SDS011;19565;46.602;11.534;2023-04-03T03:02:42;40.73;;;39.03;;
33206;SDS011;19565;46.602;11.534;2023-04-03T03:05:10;40.10;;;38.40;;
33206;SDS011;19565;46.602;11.534;2023-04-03T03:07:38;40.80;;;39.00;;
33206;SDS011;19565;46.602;11.534;2023-04-03T03:10:07;39.80;;;38.10;;
33206;SDS011;19565;46.602;11.534;2023-04-03T03:12:35;39.27;;;37.57;;
33206;SDS011;19565;46.602;11.534;2023-04-03T03:15:03;39.43;;;37.73;;
33206;SDS011;19565;46.602;11.534;2023-04-03T03:17:33;39.87;;;38.17;;
33206;SDS011;19565;46.602;11.534;2023-04-03T03:20:02;40.03;;;38.33;;
33206;SDS011;19565;46.602;11.534;2023-04-03T03:22:31;40.60;;;38.90;;
33206;SDS011;19565;46.602;11.534;2023-04-03T03:24:59;39.73;;;38.03;;
33206;SDS011;19565;46.602;11.534;2023-04-03T03:27:28;41.50;;;39.70;;
33206;SDS011;19565;46.602;11.534;2023-04-03T03:29:56;39.00;;;37.30;;
33206;SDS011;19565;46.602;11.534;2023-04-03T03:32:24;39.37;;;37.67;;
33206;SDS011;19565;46.602;11.534;2023-04-03T03:34:53;38.37;;;36.70;;
33206;SDS011;19565;46.602;11.534;2023-04-03T03:37:21;38.70;;;37.00;;
33206;SDS011;19565;46.602;11.534;2023-04-03T03:39:49;39.37;;;37.67;;
33206;SDS011;19565;46.602;11.534;2023-04-03T03:42:17;39.80;;;38.10;;
33206;SDS011;19565;46.602;11.534;2023-04-03T03:44:45;39.73;;;38.03;;
33206;SDS011;19565;46.602;11.534;2023-04-03T03:47:13;39.20;;;37.50;;
33206;SDS011;19565;46.602;11.534;2023-04-03T03:49:41;39.70;;;38.00;;
33206;SDS011;19565;46.602;11.534;2023-04-03T03:52:11;105.07;;;98.33;;
33206;SDS011;19565;46.602;11.534;2023-04-03T03:54:39;17.03;;;16.23;;
33206;SDS011;19565;46.602;11.534;2023-04-03T03:57:07;17.60;;;16.80;;
33206;SDS011;19565;46.602;11.534;2023-04-03T03:59:35;18.27;;;17.27;;
33206;SDS011;19565;46.602;11.534;2023-04-03T04:02:03;17.77;;;16.97;;
33206;SDS011;19565;46.602;11.534;2023-04-03T04:04:31;17.50;;;16.70;;
33206;SDS011;19565;46.602;11.534;2023-04-03T04:06:59;17.20;;;16.40;;
33206;SDS011;19565;46.602;11.534;2023-04-03T04:09:29;16.30;;;15.50;;
33206;SDS011;19565;46.602;11.534;2023-04-03T04:11:57;17.77;;;16.97;;
33206;SDS011;19565;46.602;11.534;2023-04-03T04:14:25;16.90;;;16.10;;
33206;SDS011;19565;46.602;11.534;2023-04-03T04:16:53;16.70;;;15.90;;
33206;SDS011;19565;46.602;11.534;2023-04-03T04:19:21;16.70;;;15.90;;
33206;SDS011;19565;46.602;11.534;2023-04-03T04:21:49;17.40;;;16.60;;
33206;SDS011;19565;46.602;11.534;2023-04-03T04:24:17;17.20;;;16.40;;
33206;SDS011;19565;46.602;11.534;2023-04-03T04:26:47;16.57;;;15.77;;
33206;SDS011;19565;46.602;11.534;2023-04-03T04:29:15;17.00;;;16.20;;
33206;SDS011;19565;46.602;11.534;2023-04-03T04:31:43;16.87;;;16.07;;
33206;SDS011;19565;46.602;11.534;2023-04-03T04:34:11;35.67;;;34.17;;
33206;SDS011;19565;46.602;11.534;2023-04-03T04:36:39;40.33;;;38.63;;
33206;SDS011;19565;46.602;11.534;2023-04-03T04:39:07;39.40;;;37.70;;
33206;SDS011;19565;46.602;11.534;2023-04-03T04:41:36;47.90;;;45.90;;
33206;SDS011;19565;46.602;11.534;2023-04-03T04:44:05;41.87;;;40.00;;
33206;SDS011;19565;46.602;11.534;2023-04-03T04:46:34;40.90;;;39.10;;
33206;SDS011;19565;46.602;11.534;2023-04-03T04:49:02;43.83;;;41.93;;
33206;SDS011;19565;46.602;11.534;2023-04-03T04:51:30;41.30;;;39.50;;
33206;SDS011;19565;46.602;11.534;2023-04-03T04:54:13;42.70;;;40.90;;
33206;SDS011;19565;46.602;11.534;2023-04-03T04:56:42;41.17;;;39.37;;
33206;SDS011;19565;46.602;11.534;2023-04-03T04:59:11;39.00;;;37.30;;
33206;SDS011;19565;46.602;11.534;2023-04-03T05:01:39;41.03;;;39.23;;
33206;SDS011;19565;46.602;11.534;2023-04-03T05:04:08;19.17;;;18.27;;
33206;SDS011;19565;46.602;11.534;2023-04-03T05:06:38;19.10;;;18.20;;
33206;SDS011;19565;46.602;11.534;2023-04-03T05:09:06;19.33;;;18.43;;
33206;SDS011;19565;46.602;11.534;2023-04-03T05:11:36;17.97;;;17.07;;
33206;SDS011;19565;46.602;11.534;2023-04-03T05:14:04;38.80;;;37.13;;
33206;SDS011;19565;46.602;11.534;2023-04-03T05:16:34;51.77;;;49.67;;
33206;SDS011;19565;46.602;11.534;2023-04-03T05:19:02;39.90;;;38.17;;
33206;SDS011;19565;46.602;11.534;2023-04-03T05:21:30;40.00;;;38.30;;
33206;SDS011;19565;46.602;11.534;2023-04-03T05:23:59;41.00;;;39.20;;
33206;SDS011;19565;46.602;11.534;2023-04-03T05:26:28;40.13;;;38.43;;
33206;SDS011;19565;46.602;11.534;2023-04-03T05:28:57;47.70;;;45.70;;
33206;SDS011;19565;46.602;11.534;2023-04-03T05:31:25;49.23;;;47.23;;
33206;SDS011;19565;46.602;11.534;2023-04-03T05:33:57;49.30;;;47.30;;
33206;SDS011;19565;46.602;11.534;2023-04-03T05:36:25;42.03;;;40.23;;
33206;SDS011;19565;46.602;11.534;2023-04-03T05:38:54;45.57;;;43.67;;
33206;SDS011;19565;46.602;11.534;2023-04-03T05:41:23;45.37;;;43.47;;
33206;SDS011;19565;46.602;11.534;2023-04-03T05:43:51;48.50;;;46.47;;
33206;SDS011;19565;46.602;11.534;2023-04-03T05:46:19;44.63;;;42.73;;
33206;SDS011;19565;46.602;11.534;2023-04-03T05:48:48;44.27;;;42.37;;
33206;SDS011;19565;46.602;11.534;2023-04-03T05:51:18;22.40;;;21.33;;
33206;SDS011;19565;46.602;11.534;2023-04-03T05:53:49;24.63;;;23.33;;
33206;SDS011;19565;46.602;11.534;2023-04-03T05:56:27;23.87;;;22.77;;
33206;SDS011;19565;46.602;11.534;2023-04-03T05:58:55;23.47;;;22.37;;
33206;SDS011;19565;46.602;11.534;2023-04-03T06:01:23;24.43;;;23.13;;
33206;SDS011;19565;46.602;11.534;2023-04-03T06:03:51;23.30;;;22.20;;
33206;SDS011;19565;46.602;11.534;2023-04-03T06:06:21;21.40;;;20.40;;
33206;SDS011;19565;46.602;11.534;2023-04-03T06:08:49;21.80;;;20.80;;
33206;SDS011;19565;46.602;11.534;2023-04-03T06:11:18;23.37;;;22.17;;
33206;SDS011;19565;46.602;11.534;2023-04-03T06:13:47;21.13;;;20.07;;
33206;SDS011;19565;46.602;11.534;2023-04-03T06:16:15;22.90;;;21.80;;
33206;SDS011;19565;46.602;11.534;2023-04-03T06:18:45;20.73;;;19.73;;
33206;SDS011;19565;46.602;11.534;2023-04-03T06:21:13;23.30;;;22.20;;
33206;SDS011;19565;46.602;11.534;2023-04-03T06:23:43;23.60;;;22.50;;
33206;SDS011;19565;46.602;11.534;2023-04-03T06:26:11;24.07;;;22.77;;
33206;SDS011;19565;46.602;11.534;2023-04-03T06:28:39;23.40;;;22.30;;
33206;SDS011;19565;46.602;11.534;2023-04-03T06:31:07;22.63;;;21.10;;
33206;SDS011;19565;46.602;11.534;2023-04-03T06:33:35;29.07;;;27.77;;
33206;SDS011;19565;46.602;11.534;2023-04-03T06:36:03;24.80;;;23.67;;
33206;SDS011;19565;46.602;11.534;2023-04-03T06:38:33;25.70;;;24.50;;
33206;SDS011;19565;46.602;11.534;2023-04-03T06:41:02;48.47;;;46.37;;
33206;SDS011;19565;46.602;11.534;2023-04-03T06:43:31;49.77;;;47.47;;
33206;SDS011;19565;46.602;11.534;2023-04-03T06:46:00;50.03;;;47.93;;
33206;SDS011;19565;46.602;11.534;2023-04-03T06:48:28;47.77;;;45.77;;
33206;SDS011;19565;46.602;11.534;2023-04-03T06:50:56;47.07;;;45.07;;
33206;SDS011;19565;46.602;11.534;2023-04-03T06:53:24;51.27;;;48.93;;
33206;SDS011;19565;46.602;11.534;2023-04-03T06:55:52;47.87;;;45.87;;
33206;SDS011;19565;46.602;11.534;2023-04-03T06:58:22;45.10;;;43.20;;
33206;SDS011;19565;46.602;11.534;2023-04-03T07:00:50;45.07;;;43.17;;
33206;SDS011;19565;46.602;11.534;2023-04-03T07:03:18;48.90;;;46.90;;
33206;SDS011;19565;46.602;11.534;2023-04-03T07:05:46;52.00;;;49.90;;
33206;SDS011;19565;46.602;11.534;2023-04-03T07:08:14;54.87;;;52.57;;
33206;SDS011;19565;46.602;11.534;2023-04-03T07:10:42;55.47;;;53.17;;
33206;SDS011;19565;46.602;11.534;2023-04-03T07:13:11;59.53;;;57.03;;
33206;SDS011;19565;46.602;11.534;2023-04-03T07:15:40;31.10;;;29.77;;
33206;SDS011;19565;46.602;11.534;2023-04-03T07:18:09;27.07;;;25.87;;
33206;SDS011;19565;46.602;11.534;2023-04-03T07:20:37;23.90;;;22.70;;
33206;SDS011;19565;46.602;11.534;2023-04-03T07:23:06;22.83;;;21.73;;
33206;SDS011;19565;46.602;11.534;2023-04-03T07:25:34;22.07;;;21.07;;
33206;SDS011;19565;46.602;11.534;2023-04-03T07:28:03;22.40;;;21.40;;
33206;SDS011;19565;46.602;11.534;2023-04-03T07:30:31;22.90;;;21.80;;
33206;SDS011;19565;46.602;11.534;2023-04-03T07:33:00;27.83;;;26.63;;
33206;SDS011;19565;46.602;11.534;2023-04-03T07:35:28;24.90;;;23.70;;
33206;SDS011;19565;46.602;11.534;2023-04-03T07:37:56;23.40;;;22.30;;
33206;SDS011;19565;46.602;11.534;2023-04-03T07:40:24;20.17;;;19.27;;
33206;SDS011;19565;46.602;11.534;2023-04-03T07:42:52;21.30;;;20.30;;
33206;SDS011;19565;46.602;11.534;2023-04-03T07:45:22;24.13;;;23.03;;
33206;SDS011;19565;46.602;11.534;2023-04-03T07:47:51;21.50;;;20.50;;
33206;SDS011;19565;46.602;11.534;2023-04-03T07:50:20;23.23;;;22.13;;
33206;SDS011;19565;46.602;11.534;2023-04-03T07:52:48;22.27;;;21.27;;
33206;SDS011;19565;46.602;11.534;2023-04-03T07:55:18;22.33;;;21.33;;
33206;SDS011;19565;46.602;11.534;2023-04-03T07:57:46;23.23;;;22.10;;
33206;SDS011;19565;46.602;11.534;2023-04-03T08:00:17;22.70;;;21.67;;
33206;SDS011;19565;46.602;11.534;2023-04-03T08:02:46;25.27;;;24.17;;
33206;SDS011;19565;46.602;11.534;2023-04-03T08:05:18;38.57;;;36.97;;
33206;SDS011;19565;46.602;11.534;2023-04-03T08:07:48;25.33;;;24.23;;
33206;SDS011;19565;46.602;11.534;2023-04-03T08:10:16;39.90;;;38.20;;
33206;SDS011;19565;46.602;11.534;2023-04-03T08:12:45;34.70;;;33.20;;
33206;SDS011;19565;46.602;11.534;2023-04-03T08:15:13;35.13;;;33.63;;
33206;SDS011;19565;46.602;11.534;2023-04-03T08:17:42;32.80;;;31.40;;
33206;SDS011;19565;46.602;11.534;2023-04-03T08:20:10;33.83;;;32.33;;
33206;SDS011;19565;46.602;11.534;2023-04-03T08:22:38;31.90;;;30.50;;
33206;SDS011;19565;46.602;11.534;2023-04-03T08:25:08;29.77;;;28.47;;
33206;SDS011;19565;46.602;11.534;2023-04-03T08:27:36;28.97;;;27.70;;
33206;SDS011;19565;46.602;11.534;2023-04-03T08:30:05;25.33;;;24.23;;
33206;SDS011;19565;46.602;11.534;2023-04-03T08:32:35;38.20;;;36.60;;
33206;SDS011;19565;46.602;11.534;2023-04-03T08:35:03;22.00;;;21.00;;
33206;SDS011;19565;46.602;11.534;2023-04-03T08:37:34;22.57;;;21.47;;
33206;SDS011;19565;46.602;11.534;2023-04-03T08:40:04;22.80;;;21.70;;
33206;SDS011;19565;46.602;11.534;2023-04-03T08:42:40;21.43;;;20.43;;
33206;SDS011;19565;46.602;11.534;2023-04-03T08:45:15;21.13;;;20.13;;
33206;SDS011;19565;46.602;11.534;2023-04-03T08:47:49;42.47;;;40.70;;
33206;SDS011;19565;46.602;11.534;2023-04-03T08:50:26;20.43;;;19.43;;
33206;SDS011;19565;46.602;11.534;2023-04-03T08:52:59;21.30;;;20.30;;
33206;SDS011;19565;46.602;11.534;2023-04-03T08:55:29;20.90;;;19.90;;
33206;SDS011;19565;46.602;11.534;2023-04-03T08:58:03;21.70;;;20.70;;
33206;SDS011;19565;46.602;11.534;2023-04-03T09:00:34;22.77;;;21.77;;
33206;SDS011;19565;46.602;11.534;2023-04-03T09:03:11;20.30;;;19.30;;
33206;SDS011;19565;46.602;11.534;2023-04-03T09:05:42;20.13;;;19.20;;
33206;SDS011;19565;46.602;11.534;2023-04-03T09:08:18;22.70;;;21.70;;
33206;SDS011;19565;46.602;11.534;2023-04-03T09:10:54;20.93;;;19.93;;
33206;SDS011;19565;46.602;11.534;2023-04-03T09:13:34;19.27;;;18.37;;
33206;SDS011;19565;46.602;11.534;2023-04-03T09:16:12;21.13;;;20.13;;
33206;SDS011;19565;46.602;11.534;2023-04-03T09:18:48;21.57;;;20.57;;
33206;SDS011;19565;46.602;11.534;2023-04-03T09:21:25;21.97;;;20.97;;
33206;SDS011;19565;46.602;11.534;2023-04-03T09:23:59;21.07;;;20.07;;
33206;SDS011;19565;46.602;11.534;2023-04-03T09:26:31;20.20;;;19.30;;
33206;SDS011;19565;46.602;11.534;2023-04-03T09:29:06;22.50;;;21.50;;
33206;SDS011;19565;46.602;11.534;2023-04-03T09:31:36;21.87;;;20.87;;
33206;SDS011;19565;46.602;11.534;2023-04-03T09:34:09;20.83;;;19.83;;
33206;SDS011;19565;46.602;11.534;2023-04-03T09:36:45;19.93;;;19.03;;
33206;SDS011;19565;46.602;11.534;2023-04-03T09:39:16;21.40;;;20.40;;
33206;SDS011;19565;46.602;11.534;2023-04-03T09:41:59;23.43;;;22.33;;
33206;SDS011;19565;46.602;11.534;2023-04-03T09:44:32;20.50;;;19.53;;
33206;SDS011;19565;46.602;11.534;2023-04-03T09:47:17;20.70;;;19.70;;
33206;SDS011;19565;46.602;11.534;2023-04-03T09:49:46;20.83;;;19.83;;
33206;SDS011;19565;46.602;11.534;2023-04-03T09:52:19;22.73;;;21.73;;
33206;SDS011;19565;46.602;11.534;2023-04-03T09:54:49;22.50;;;21.50;;
33206;SDS011;19565;46.602;11.534;2023-04-03T09:57:17;21.30;;;20.30;;
33206;SDS011;19565;46.602;11.534;2023-04-03T09:59:56;18.97;;;18.07;;
33206;SDS011;19565;46.602;11.534;2023-04-03T10:02:36;19.07;;;18.17;;
33206;SDS011;19565;46.602;11.534;2023-04-03T10:08:03;19.10;;;18.20;;
33206;SDS011;19565;46.602;11.534;2023-04-03T10:10:36;18.87;;;17.97;;
33206;SDS011;19565;46.602;11.534;2023-04-03T10:13:07;18.60;;;17.70;;
33206;SDS011;19565;46.602;11.534;2023-04-03T10:15:48;18.67;;;17.77;;
33206;SDS011;19565;46.602;11.534;2023-04-03T10:18:27;18.77;;;17.87;;
33206;SDS011;19565;46.602;11.534;2023-04-03T10:21:02;18.07;;;17.17;;
33206;SDS011;19565;46.602;11.534;2023-04-03T10:23:47;19.57;;;18.67;;
33206;SDS011;19565;46.602;11.534;2023-04-03T10:26:23;18.60;;;17.70;;
33206;SDS011;19565;46.602;11.534;2023-04-03T10:29:01;18.50;;;17.60;;
33206;SDS011;19565;46.602;11.534;2023-04-03T10:31:37;18.53;;;17.63;;
33206;SDS011;19565;46.602;11.534;2023-04-03T10:34:15;18.90;;;18.00;;
33206;SDS011;19565;46.602;11.534;2023-04-03T10:36:51;17.60;;;16.80;;
33206;SDS011;19565;46.602;11.534;2023-04-03T10:39:27;17.63;;;16.83;;
33206;SDS011;19565;46.602;11.534;2023-04-03T10:42:03;18.03;;;17.13;;
33206;SDS011;19565;46.602;11.534;2023-04-03T10:44:50;18.50;;;17.60;;
33206;SDS011;19565;46.602;11.534;2023-04-03T10:47:30;18.10;;;17.20;;
33206;SDS011;19565;46.602;11.534;2023-04-03T10:50:08;18.10;;;17.20;;
33206;SDS011;19565;46.602;11.534;2023-04-03T10:52:51;18.50;;;17.60;;
33206;SDS011;19565;46.602;11.534;2023-04-03T10:55:28;18.67;;;17.77;;
33206;SDS011;19565;46.602;11.534;2023-04-03T10:58:02;18.00;;;17.10;;
33206;SDS011;19565;46.602;11.534;2023-04-03T11:00:33;18.03;;;17.13;;
33206;SDS011;19565;46.602;11.534;2023-04-03T11:03:08;18.73;;;17.83;;
33206;SDS011;19565;46.602;11.534;2023-04-03T11:05:42;19.97;;;19.00;;
33206;SDS011;19565;46.602;11.534;2023-04-03T11:08:13;19.77;;;18.77;;
33206;SDS011;19565;46.602;11.534;2023-04-03T11:10:49;17.60;;;16.70;;
33206;SDS011;19565;46.602;11.534;2023-04-03T11:13:19;17.57;;;16.73;;
33206;SDS011;19565;46.602;11.534;2023-04-03T11:15:51;21.10;;;20.10;;
33206;SDS011;19565;46.602;11.534;2023-04-03T11:18:25;18.50;;;17.60;;
33206;SDS011;19565;46.602;11.534;2023-04-03T11:21:01;19.33;;;18.43;;
33206;SDS011;19565;46.602;11.534;2023-04-03T11:23:32;18.50;;;17.60;;
33206;SDS011;19565;46.602;11.534;2023-04-03T11:26:15;18.93;;;18.03;;
33206;SDS011;19565;46.602;11.534;2023-04-03T11:28:45;21.80;;;20.80;;
33206;SDS011;19565;46.602;11.534;2023-04-03T11:31:16;21.80;;;20.80;;
33206;SDS011;19565;46.602;11.534;2023-04-03T11:33:58;20.43;;;19.43;;
33206;SDS011;19565;46.602;11.534;2023-04-03T11:36:38;20.50;;;19.50;;
33206;SDS011;19565;46.602;11.534;2023-04-03T11:39:13;21.50;;;20.50;;
33206;SDS011;19565;46.602;11.534;2023-04-03T11:41:47;20.80;;;19.80;;
33206;SDS011;19565;46.602;11.534;2023-04-03T11:44:28;19.90;;;19.00;;
33206;SDS011;19565;46.602;11.534;2023-04-03T11:47:00;20.33;;;19.33;;
33206;SDS011;19565;46.602;11.534;2023-04-03T11:55:46;21.10;;;20.10;;
33206;SDS011;19565;46.602;11.534;2023-04-03T11:58:21;20.35;;;19.35;;
33206;SDS011;19565;46.602;11.534;2023-04-03T12:00:52;20.05;;;19.10;;
33206;SDS011;19565;46.602;11.534;2023-04-03T12:03:29;19.90;;;19.00;;
33206;SDS011;19565;46.602;11.534;2023-04-03T12:09:23;22.00;;;20.83;;
33206;SDS011;19565;46.602;11.534;2023-04-03T12:11:54;19.90;;;18.90;;
33206;SDS011;19565;46.602;11.534;2023-04-03T12:14:24;18.55;;;17.65;;
33206;SDS011;19565;46.602;11.534;2023-04-03T12:16:54;18.65;;;17.75;;
33206;SDS011;19565;46.602;11.534;2023-04-03T12:19:29;30.00;;;28.70;;
33206;SDS011;19565;46.602;11.534;2023-04-03T12:22:13;20.48;;;19.48;;
33206;SDS011;19565;46.602;11.534;2023-04-03T12:24:43;21.27;;;20.27;;
33206;SDS011;19565;46.602;11.534;2023-04-03T12:27:20;19.65;;;18.75;;
33206;SDS011;19565;46.602;11.534;2023-04-03T12:29:56;20.50;;;19.50;;
33206;SDS011;19565;46.602;11.534;2023-04-03T12:32:36;20.75;;;19.75;;
33206;SDS011;19565;46.602;11.534;2023-04-03T12:35:27;21.55;;;20.55;;
33206;SDS011;19565;46.602;11.534;2023-04-03T12:38:20;20.67;;;19.67;;
33206;SDS011;19565;46.602;11.534;2023-04-03T12:41:10;21.20;;;20.20;;
33206;SDS011;19565;46.602;11.534;2023-04-03T12:43:51;19.73;;;18.83;;
33206;SDS011;19565;46.602;11.534;2023-04-03T12:46:37;19.25;;;18.35;;
33206;SDS011;19565;46.602;11.534;2023-04-03T12:49:12;20.92;;;19.92;;
33206;SDS011;19565;46.602;11.534;2023-04-03T12:51:50;20.25;;;19.25;;
33206;SDS011;19565;46.602;11.534;2023-04-03T12:54:21;21.13;;;20.10;;
33206;SDS011;19565;46.602;11.534;2023-04-03T12:57:08;20.27;;;19.38;;
33206;SDS011;19565;46.602;11.534;2023-04-03T12:59:37;20.80;;;19.80;;
33206;SDS011;19565;46.602;11.534;2023-04-03T13:02:10;21.25;;;20.25;;
33206;SDS011;19565;46.602;11.534;2023-04-03T13:04:47;19.90;;;19.00;;
33206;SDS011;19565;46.602;11.534;2023-04-03T13:07:19;22.75;;;21.75;;
33206;SDS011;19565;46.602;11.534;2023-04-03T13:09:58;24.10;;;23.00;;
33206;SDS011;19565;46.602;11.534;2023-04-03T13:12:28;21.63;;;20.63;;
33206;SDS011;19565;46.602;11.534;2023-04-03T13:14:58;24.65;;;23.55;;
33206;SDS011;19565;46.602;11.534;2023-04-03T13:17:30;25.48;;;24.38;;
33206;SDS011;19565;46.602;11.534;2023-04-03T13:20:09;24.58;;;23.48;;
33206;SDS011;19565;46.602;11.534;2023-04-03T13:22:39;22.80;;;21.80;;
33206;SDS011;19565;46.602;11.534;2023-04-03T13:25:16;22.75;;;21.75;;
33206;SDS011;19565;46.602;11.534;2023-04-03T13:27:47;26.70;;;25.50;;
33206;SDS011;19565;46.602;11.534;2023-04-03T13:30:20;23.85;;;22.75;;
33206;SDS011;19565;46.602;11.534;2023-04-03T13:32:52;22.20;;;21.20;;
33206;SDS011;19565;46.602;11.534;2023-04-03T13:35:25;22.20;;;21.20;;
33206;SDS011;19565;46.602;11.534;2023-04-03T13:38:00;25.98;;;24.77;;
33206;SDS011;19565;46.602;11.534;2023-04-03T13:40:31;24.38;;;23.27;;
33206;SDS011;19565;46.602;11.534;2023-04-03T13:43:16;23.65;;;22.55;;
33206;SDS011;19565;46.602;11.534;2023-04-03T13:45:54;22.05;;;21.02;;
33206;SDS011;19565;46.602;11.534;2023-04-03T13:48:24;23.20;;;22.10;;
33206;SDS011;19565;46.602;11.534;2023-04-03T13:50:55;23.70;;;22.60;;
33206;SDS011;19565;46.602;11.534;2023-04-03T13:53:25;23.40;;;22.30;;
33206;SDS011;19565;46.602;11.534;2023-04-03T13:55:57;24.88;;;23.77;;
33206;SDS011;19565;46.602;11.534;2023-04-03T13:58:34;23.95;;;22.85;;
33206;SDS011;19565;46.602;11.534;2023-04-03T14:01:07;24.40;;;23.30;;
33206;SDS011;19565;46.602;11.534;2023-04-03T14:03:41;23.80;;;22.70;;
33206;SDS011;19565;46.602;11.534;2023-04-03T14:06:12;23.08;;;21.98;;
33206;SDS011;19565;46.602;11.534;2023-04-03T14:08:41;28.50;;;27.20;;
33206;SDS011;19565;46.602;11.534;2023-04-03T14:11:15;28.42;;;27.20;;
33206;SDS011;19565;46.602;11.534;2023-04-03T14:13:45;30.80;;;29.50;;
33206;SDS011;19565;46.602;11.534;2023-04-03T14:16:15;23.67;;;22.58;;
33206;SDS011;19565;46.602;11.534;2023-04-03T14:18:45;27.30;;;26.10;;
33206;SDS011;19565;46.602;11.534;2023-04-03T14:21:15;27.35;;;26.05;;
33206;SDS011;19565;46.602;11.534;2023-04-03T14:23:45;28.27;;;27.08;;
33206;SDS011;19565;46.602;11.534;2023-04-03T14:26:15;24.80;;;23.70;;
33206;SDS011;19565;46.602;11.534;2023-04-03T14:28:45;21.95;;;20.95;;
33206;SDS011;19565;46.602;11.534;2023-04-03T14:31:14;25.60;;;24.50;;
33206;SDS011;19565;46.602;11.534;2023-04-03T14:33:44;25.85;;;24.75;;
33206;SDS011;19565;46.602;11.534;2023-04-03T14:36:13;22.67;;;21.67;;
33206;SDS011;19565;46.602;11.534;2023-04-03T14:38:42;26.70;;;25.50;;
33206;SDS011;19565;46.602;11.534;2023-04-03T14:41:12;26.85;;;25.65;;
33206;SDS011;19565;46.602;11.534;2023-04-03T14:43:44;25.30;;;24.10;;
33206;SDS011;19565;46.602;11.534;2023-04-03T14:46:13;22.10;;;21.00;;